| time (UTC) | temp F | wind direction | speed knots | gust knots | rain 1hr in | rain 24hr in | rain mn in | humidity % | barometer mb |
| 20260502212520 | 67 | 268 | 4.3 | 13.0 | 0.00 | 0.00 | 0.00 | 31 | 1013.6 |
| 20260502205520 | 68 | 275 | 5.2 | 12.2 | 0.00 | 0.00 | 0.00 | 31 | 1014.0 |
| 20260502202520 | 68 | 170 | 6.1 | 13.9 | 0.00 | 0.00 | 0.00 | 32 | 1014.5 |
| 20260502195519 | 67 | 206 | 5.2 | 12.2 | 0.00 | 0.00 | 0.00 | 31 | 1015.3 |
| 20260502185519 | 64 | 297 | 5.2 | 15.6 | 0.00 | 0.00 | 0.00 | 32 | 1016.5 |
| 20260502182518 | 63 | 248 | 6.1 | 13.0 | 0.00 | 0.00 | 0.00 | 33 | 1017.0 |
| 20260502162517 | 59 | 213 | 5.2 | 13.9 | 0.00 | 0.00 | 0.00 | 36 | 1018.9 |
| 20260502122503 | 30 | 332 | 0.0 | 0.0 | 0.00 | 0.00 | 0.00 | 94 | 1021.0 |
| 20260502115503 | 27 | 332 | 0.0 | 0.9 | 0.00 | 0.00 | 0.00 | 92 | 1020.7 |
| 20260502112504 | 27 | 332 | 0.0 | 1.7 | 0.00 | 0.00 | 0.00 | 91 | 1020.8 |
| 20260502102459 | 27 | 332 | 0.0 | 0.9 | 0.00 | 0.00 | 0.00 | 91 | 1020.6 |
| 20260502065457 | 30 | 332 | 0.0 | 0.0 | 0.00 | 0.00 | 0.00 | 85 | 1020.5 |
| 20260502062456 | 30 | 331 | 0.0 | 0.0 | 0.00 | 0.00 | 0.00 | 83 | 1020.8 |
| 20260502055455 | 31 | 331 | 0.0 | 0.0 | 0.00 | 0.00 | 0.00 | 81 | 1020.7 |
| 20260502052453 | 32 | 332 | 0.0 | 0.0 | 0.00 | 0.00 | 0.00 | 81 | 1020.8 |
| 20260502045451 | 33 | 331 | 0.0 | 0.0 | 0.00 | 0.00 | 0.00 | 75 | 1020.9 |
| 20260502042452 | 34 | 331 | 0.0 | 0.0 | 0.00 | 0.00 | 0.00 | 74 | 1020.7 |
| 20260502035445 | 35 | 331 | 0.0 | 0.0 | 0.00 | 0.00 | 0.00 | 71 | 1020.8 |
| 20260502032446 | 37 | 332 | 0.0 | 0.0 | 0.00 | 0.00 | 0.00 | 67 | 1020.8 |
| 20260502025445 | 40 | 331 | 0.0 | 0.0 | 0.00 | 0.00 | 0.00 | 63 | 1020.8 |
| 20260502022441 | 42 | 332 | 0.0 | 0.0 | 0.00 | 0.00 | 0.00 | 59 | 1020.8 |
| 20260502015441 | 46 | 331 | 0.0 | 1.7 | 0.00 | 0.00 | 0.00 | 53 | 1020.6 |
| 20260502002441 | 53 | 332 | 0.0 | 0.9 | 0.00 | 0.00 | 0.00 | 36 | 1020.2 |
| 20260501235440 | 53 | 332 | 1.7 | 5.2 | 0.00 | 0.00 | 0.00 | 33 | 1020.2 |
| 20260501232440 | 55 | 336 | 2.6 | 6.1 | 0.00 | 0.00 | 0.00 | 31 | 1020.2 |
| 20260501225440 | 55 | 304 | 1.7 | 5.2 | 0.00 | 0.00 | 0.00 | 31 | 1020.2 |
| 20260501222441 | 56 | 82 | 2.6 | 8.7 | 0.00 | 0.00 | 0.00 | 34 | 1020.2 |
| 20260501215441 | 55 | 55 | 1.7 | 7.0 | 0.00 | 0.00 | 0.00 | 31 | 1020.4 |